Time,TemperatureF,DewpointF,PressureIn,WindDirection,WindDirectionDegrees,WindSpeedMPH,WindSpeedGustMPH,Humidity,HourlyPrecipIn,Conditions,Clouds,dailyrainin,SolarRadiationWatts/m^2,SoftwareType,DateUTC
2013-10-04 00:00:00,80.6,77.7,30.50,NNE,15,0.0,-999.0,91,0.00,,,0.00,0,WeatherHawk,2013-10-04 05:00:00,
2013-10-04 00:05:00,80.7,77.8,30.48,North,4,0.0,-999.0,91,0.00,,,0.00,0,WeatherHawk,2013-10-04 05:05:00,
2013-10-04 00:10:00,81.0,78.1,30.48,ENE,68,2.0,-999.0,91,0.00,,,0.00,0,WeatherHawk,2013-10-04 05:10:00,
2013-10-04 00:15:00,80.9,78.0,30.47,NNE,31,1.0,-999.0,91,0.00,,,0.00,0,WeatherHawk,2013-10-04 05:15:00,
2013-10-04 00:20:00,80.9,78.3,30.49,East,97,0.0,-999.0,92,0.00,,,0.00,0,WeatherHawk,2013-10-04 05:20:00,
2013-10-04 00:25:00,80.7,78.5,30.48,NNE,27,0.0,-999.0,93,0.00,,,0.00,0,WeatherHawk,2013-10-04 05:25:00,
2013-10-04 00:35:00,81.1,78.6,30.47,ENE,57,0.0,-999.0,92,0.00,,,0.00,0,WeatherHawk,2013-10-04 05:35:00,
2013-10-04 00:40:00,81.2,78.6,30.48,NE,42,2.0,-999.0,92,0.00,,,0.00,0,WeatherHawk,2013-10-04 05:40:00,
2013-10-04 00:45:00,80.8,78.3,30.47,East,87,0.0,-999.0,92,0.00,,,0.00,0,WeatherHawk,2013-10-04 05:45:00,
2013-10-04 00:50:00,80.7,78.2,30.47,East,94,0.0,-999.0,92,0.00,,,0.00,0,WeatherHawk,2013-10-04 05:50:00,
2013-10-04 00:55:00,80.8,78.6,30.48,NNE,18,0.0,-999.0,93,0.00,,,0.00,0,WeatherHawk,2013-10-04 05:55:00,
2013-10-04 01:00:00,80.9,78.3,30.48,ENE,66,0.0,-999.0,92,0.00,,,0.00,0,WeatherHawk,2013-10-04 06:00:00,
2013-10-04 01:05:00,81.0,78.4,30.47,NE,39,0.0,-999.0,92,0.00,,,0.00,0,WeatherHawk,2013-10-04 06:05:00,
2013-10-04 01:10:00,80.5,78.0,30.46,East,87,0.0,-999.0,92,0.00,,,0.00,0,WeatherHawk,2013-10-04 06:10:00,
2013-10-04 01:15:00,80.7,78.2,30.47,ESE,106,1.0,-999.0,92,0.00,,,0.00,0,WeatherHawk,2013-10-04 06:15:00,
2013-10-04 01:20:00,80.7,78.4,30.47,NNE,25,0.0,-999.0,93,0.00,,,0.00,0,WeatherHawk,2013-10-04 06:20:00,
2013-10-04 01:25:00,80.4,78.2,30.46,NNE,28,0.0,-999.0,93,0.00,,,0.00,0,WeatherHawk,2013-10-04 06:25:00,
2013-10-04 01:30:00,80.7,78.8,30.47,North,3,0.0,-999.0,94,0.00,,,0.00,0,WeatherHawk,2013-10-04 06:30:00,
2013-10-04 01:35:00,80.7,78.8,30.48,East,89,1.0,-999.0,94,0.00,,,0.00,0,WeatherHawk,2013-10-04 06:35:00,
2013-10-04 01:40:00,81.0,79.1,30.46,North,0,1.0,-999.0,94,0.00,,,0.00,0,WeatherHawk,2013-10-04 06:40:00,
2013-10-04 01:45:00,81.3,79.0,30.45,NE,53,4.0,-999.0,93,0.00,,,0.00,0,WeatherHawk,2013-10-04 06:45:00,
2013-10-04 01:50:00,81.1,78.9,30.46,ENE,77,1.0,-999.0,93,0.00,,,0.00,0,WeatherHawk,2013-10-04 06:50:00,
2013-10-04 01:55:00,81.2,78.7,30.45,NNE,24,1.0,-999.0,92,0.00,,,0.00,0,WeatherHawk,2013-10-04 06:55:00,
2013-10-04 02:00:00,81.3,78.8,30.45,NE,52,4.0,-999.0,92,0.00,,,0.00,0,WeatherHawk,2013-10-04 07:00:00,
2013-10-04 02:05:00,81.4,78.9,30.46,ENE,70,4.0,-999.0,92,0.00,,,0.00,0,WeatherHawk,2013-10-04 07:05:00,
2013-10-04 02:10:00,81.2,78.6,30.45,North,5,2.0,-999.0,92,0.00,,,0.00,0,WeatherHawk,2013-10-04 07:10:00,
2013-10-04 02:15:00,81.2,78.6,30.45,NNE,17,1.0,-999.0,92,0.00,,,0.00,0,WeatherHawk,2013-10-04 07:15:00,
2013-10-04 02:20:00,81.4,78.9,30.45,ESE,103,5.0,-999.0,92,0.00,,,0.00,0,WeatherHawk,2013-10-04 07:20:00,
2013-10-04 02:25:00,81.2,78.7,30.45,NE,40,2.0,-999.0,92,0.00,,,0.00,0,WeatherHawk,2013-10-04 07:25:00,
2013-10-04 02:30:00,81.2,78.6,30.45,North,6,3.0,-999.0,92,0.00,,,0.00,0,WeatherHawk,2013-10-04 07:30:00,
2013-10-04 02:35:00,81.0,78.4,30.44,NNE,23,1.0,-999.0,92,0.00,,,0.00,0,WeatherHawk,2013-10-04 07:35:00,
2013-10-04 02:40:00,80.9,78.4,30.44,East,80,3.0,-999.0,92,0.00,,,0.00,0,WeatherHawk,2013-10-04 07:40:00,
2013-10-04 02:45:00,81.0,78.4,30.44,ESE,106,2.0,-999.0,92,0.00,,,0.00,0,WeatherHawk,2013-10-04 07:45:00,
2013-10-04 02:50:00,81.1,78.5,30.45,East,85,1.0,-999.0,92,0.00,,,0.00,0,WeatherHawk,2013-10-04 07:50:00,
2013-10-04 02:55:00,81.3,78.8,30.44,NNE,13,4.0,-999.0,92,0.00,,,0.00,0,WeatherHawk,2013-10-04 07:55:00,
2013-10-04 03:00:00,81.2,78.0,30.43,NNE,32,2.0,-999.0,90,0.00,,,0.00,0,WeatherHawk,2013-10-04 08:00:00,
2013-10-04 03:05:00,81.3,78.1,30.44,East,83,3.0,-999.0,90,0.00,,,0.00,0,WeatherHawk,2013-10-04 08:05:00,
2013-10-04 03:10:00,81.0,78.1,30.44,SE,127,1.0,-999.0,91,0.00,,,0.00,0,WeatherHawk,2013-10-04 08:10:00,
2013-10-04 03:15:00,80.8,78.3,30.44,SE,129,0.0,-999.0,92,0.00,,,0.00,0,WeatherHawk,2013-10-04 08:15:00,
2013-10-04 03:20:00,80.8,78.3,30.43,NNW,333,0.0,-999.0,92,0.00,,,0.00,0,WeatherHawk,2013-10-04 08:20:00,
2013-10-04 03:25:00,80.7,78.2,30.44,East,93,0.0,-999.0,92,0.00,,,0.00,0,WeatherHawk,2013-10-04 08:25:00,
2013-10-04 03:30:00,80.3,78.1,30.44,South,175,0.0,-999.0,93,0.00,,,0.00,0,WeatherHawk,2013-10-04 08:30:00,
2013-10-04 03:35:00,80.0,78.1,30.44,WNW,287,0.0,-999.0,94,0.00,,,0.00,0,WeatherHawk,2013-10-04 08:35:00,
2013-10-04 03:40:00,80.6,78.7,30.45,NNE,16,3.0,-999.0,94,0.00,,,0.00,0,WeatherHawk,2013-10-04 08:40:00,
2013-10-04 03:45:00,80.3,78.1,30.43,ENE,70,0.0,-999.0,93,0.00,,,0.00,0,WeatherHawk,2013-10-04 08:45:00,
2013-10-04 03:50:00,80.4,78.2,30.44,NE,36,0.0,-999.0,93,0.00,,,0.00,0,WeatherHawk,2013-10-04 08:50:00,
2013-10-04 03:55:00,80.7,78.2,30.44,NE,40,3.0,-999.0,92,0.00,,,0.00,0,WeatherHawk,2013-10-04 08:55:00,
2013-10-04 04:00:00,80.5,78.0,30.44,NNE,21,0.0,-999.0,92,0.00,,,0.00,0,WeatherHawk,2013-10-04 09:00:00,
2013-10-04 04:05:00,80.7,78.1,30.45,NE,53,1.0,-999.0,92,0.00,,,0.00,0,WeatherHawk,2013-10-04 09:05:00,
2013-10-04 04:10:00,80.6,77.7,30.44,North,0,1.0,-999.0,91,0.00,,,0.00,0,WeatherHawk,2013-10-04 09:10:00,
2013-10-04 04:15:00,80.6,77.8,30.43,NE,39,0.0,-999.0,91,0.00,,,0.00,0,WeatherHawk,2013-10-04 09:15:00,
2013-10-04 04:20:00,80.9,78.0,30.43,NNE,30,1.0,-999.0,91,0.00,,,0.00,0,WeatherHawk,2013-10-04 09:20:00,
2013-10-04 04:25:00,80.9,78.0,30.43,East,95,3.0,-999.0,91,0.00,,,0.00,0,WeatherHawk,2013-10-04 09:25:00,
2013-10-04 04:30:00,81.0,77.8,30.43,East,88,3.0,-999.0,90,0.00,,,0.00,0,WeatherHawk,2013-10-04 09:30:00,
2013-10-04 04:35:00,81.0,78.1,30.44,NNE,18,2.0,-999.0,91,0.00,,,0.00,0,WeatherHawk,2013-10-04 09:35:00,
2013-10-04 04:40:00,80.6,77.4,30.44,SSE,157,0.0,-999.0,90,0.00,,,0.00,0,WeatherHawk,2013-10-04 09:40:00,
2013-10-04 04:45:00,80.5,77.6,30.44,WNW,289,0.0,-999.0,91,0.00,,,0.00,0,WeatherHawk,2013-10-04 09:45:00,
2013-10-04 04:50:00,80.9,78.0,30.44,NE,41,0.0,-999.0,91,0.00,,,0.00,0,WeatherHawk,2013-10-04 09:50:00,
2013-10-04 04:55:00,80.8,78.2,30.45,NNE,33,0.0,-999.0,92,0.00,,,0.00,0,WeatherHawk,2013-10-04 09:55:00,
2013-10-04 05:00:00,80.9,78.0,30.44,NE,43,0.0,-999.0,91,0.00,,,0.00,0,WeatherHawk,2013-10-04 10:00:00,
2013-10-04 05:05:00,80.9,77.7,30.45,East,91,2.0,-999.0,90,0.00,,,0.00,0,WeatherHawk,2013-10-04 10:05:00,
2013-10-04 05:10:00,81.3,78.4,30.45,NNE,29,2.0,-999.0,91,0.00,,,0.00,0,WeatherHawk,2013-10-04 10:10:00,
2013-10-04 05:15:00,81.4,78.5,30.45,NE,48,3.0,-999.0,91,0.00,,,0.00,0,WeatherHawk,2013-10-04 10:15:00,
2013-10-04 05:20:00,80.8,77.9,30.46,SSE,149,0.0,-999.0,91,0.00,,,0.00,0,WeatherHawk,2013-10-04 10:20:00,
2013-10-04 05:25:00,81.0,78.5,30.45,NE,40,0.0,-999.0,92,0.00,,,0.00,0,WeatherHawk,2013-10-04 10:25:00,
2013-10-04 05:30:00,80.5,78.0,30.45,ESE,122,0.0,-999.0,92,0.00,,,0.00,0,WeatherHawk,2013-10-04 10:30:00,
2013-10-04 05:35:00,80.9,78.4,30.46,ENE,69,2.0,-999.0,92,0.00,,,0.00,0,WeatherHawk,2013-10-04 10:35:00,
2013-10-04 05:40:00,80.6,77.7,30.45,WSW,237,0.0,-999.0,91,0.00,,,0.00,0,WeatherHawk,2013-10-04 10:40:00,
2013-10-04 05:45:00,80.9,78.0,30.45,NNE,27,2.0,-999.0,91,0.00,,,0.00,0,WeatherHawk,2013-10-04 10:45:00,
2013-10-04 05:50:00,80.6,77.4,30.46,North,5,0.0,-999.0,90,0.00,,,0.00,0,WeatherHawk,2013-10-04 10:50:00,
2013-10-04 05:55:00,80.7,77.5,30.45,NE,42,1.0,-999.0,90,0.00,,,0.00,0,WeatherHawk,2013-10-04 10:55:00,
2013-10-04 06:00:00,80.3,77.0,30.44,NNW,344,0.0,-999.0,90,0.00,,,0.00,0,WeatherHawk,2013-10-04 11:00:00,
2013-10-04 06:05:00,80.7,77.8,30.44,SE,145,0.0,-999.0,91,0.00,,,0.00,0,WeatherHawk,2013-10-04 11:05:00,
2013-10-04 06:10:00,80.9,77.7,30.46,NE,43,2.0,-999.0,90,0.00,,,0.00,1,WeatherHawk,2013-10-04 11:10:00,
2013-10-04 06:15:00,81.0,77.8,30.45,East,92,0.0,-999.0,90,0.00,,,0.00,2,WeatherHawk,2013-10-04 11:15:00,
2013-10-04 06:20:00,81.1,77.5,30.45,NNW,338,0.0,-999.0,89,0.00,,,0.00,3,WeatherHawk,2013-10-04 11:20:00,
2013-10-04 06:25:00,81.2,77.3,30.45,NNE,21,2.0,-999.0,88,0.00,,,0.00,7,WeatherHawk,2013-10-04 11:25:00,
2013-10-04 06:30:00,81.3,77.1,30.45,NE,34,5.0,-999.0,87,0.00,,,0.00,14,WeatherHawk,2013-10-04 11:30:00,
2013-10-04 06:35:00,81.6,76.3,30.45,NE,38,5.0,-999.0,84,0.00,,,0.00,19,WeatherHawk,2013-10-04 11:35:00,
2013-10-04 06:40:00,81.6,76.7,30.45,NE,50,6.0,-999.0,85,0.00,,,0.00,22,WeatherHawk,2013-10-04 11:40:00,
2013-10-04 06:45:00,82.4,78.1,30.45,NE,44,9.0,-999.0,87,0.00,,,0.00,34,WeatherHawk,2013-10-04 11:45:00,
2013-10-04 06:50:00,82.5,77.5,30.45,NE,46,8.0,-999.0,85,0.00,,,0.00,42,WeatherHawk,2013-10-04 11:50:00,
2013-10-04 06:55:00,82.6,77.6,30.45,NE,52,3.0,-999.0,85,0.00,,,0.00,74,WeatherHawk,2013-10-04 11:55:00,
2013-10-04 07:00:00,82.9,77.5,30.45,NE,47,3.0,-999.0,84,0.00,,,0.00,107,WeatherHawk,2013-10-04 12:00:00,
2013-10-04 07:05:00,83.1,77.4,30.45,NE,44,5.0,-999.0,83,0.00,,,0.00,124,WeatherHawk,2013-10-04 12:05:00,
2013-10-04 07:10:00,83.1,76.6,30.45,NE,39,7.0,-999.0,81,0.00,,,0.00,138,WeatherHawk,2013-10-04 12:10:00,
2013-10-04 07:15:00,82.7,76.7,30.45,NE,49,5.0,-999.0,82,0.00,,,0.00,106,WeatherHawk,2013-10-04 12:15:00,
2013-10-04 07:20:00,83.4,77.0,30.45,ESE,112,4.0,-999.0,81,0.00,,,0.00,175,WeatherHawk,2013-10-04 12:20:00,
2013-10-04 07:25:00,83.1,75.9,30.45,East,86,6.0,-999.0,79,0.00,,,0.00,173,WeatherHawk,2013-10-04 12:25:00,
2013-10-04 07:30:00,83.3,76.5,30.44,NE,43,7.0,-999.0,80,0.00,,,0.00,211,WeatherHawk,2013-10-04 12:30:00,
2013-10-04 07:35:00,83.3,76.5,30.45,NE,51,8.0,-999.0,80,0.00,,,0.00,230,WeatherHawk,2013-10-04 12:35:00,
2013-10-04 07:40:00,84.0,77.9,30.47,NNE,28,7.0,-999.0,82,0.00,,,0.00,248,WeatherHawk,2013-10-04 12:40:00,
2013-10-04 07:45:00,84.2,76.9,30.46,ENE,68,10.0,-999.0,79,0.00,,,0.00,266,WeatherHawk,2013-10-04 12:45:00,
2013-10-04 07:50:00,84.2,76.1,30.46,NE,45,9.0,-999.0,77,0.00,,,0.00,285,WeatherHawk,2013-10-04 12:50:00,
2013-10-04 07:55:00,84.8,76.0,30.45,ENE,61,9.0,-999.0,75,0.00,,,0.00,298,WeatherHawk,2013-10-04 12:55:00,
2013-10-04 08:00:00,84.6,75.8,30.46,NE,47,11.0,-999.0,75,0.00,,,0.00,319,WeatherHawk,2013-10-04 13:00:00,
2013-10-04 08:05:00,84.7,75.5,30.47,ENE,58,8.0,-999.0,74,0.00,,,0.00,340,WeatherHawk,2013-10-04 13:05:00,
2013-10-04 08:10:00,84.9,75.3,30.46,NE,52,10.0,-999.0,73,0.00,,,0.00,363,WeatherHawk,2013-10-04 13:10:00,
2013-10-04 08:15:00,85.0,75.8,30.46,NE,47,8.0,-999.0,74,0.00,,,0.00,371,WeatherHawk,2013-10-04 13:15:00,
2013-10-04 08:20:00,84.8,74.8,30.47,NE,42,13.0,-999.0,72,0.00,,,0.00,395,WeatherHawk,2013-10-04 13:20:00,
2013-10-04 08:25:00,86.1,75.2,30.46,NE,51,7.0,-999.0,70,0.00,,,0.00,425,WeatherHawk,2013-10-04 13:25:00,
2013-10-04 08:30:00,85.7,74.8,30.46,ENE,77,6.0,-999.0,70,0.00,,,0.00,463,WeatherHawk,2013-10-04 13:30:00,
2013-10-04 08:35:00,85.2,74.7,30.47,NE,56,9.0,-999.0,71,0.00,,,0.00,495,WeatherHawk,2013-10-04 13:35:00,
2013-10-04 08:40:00,85.1,73.7,30.46,NE,55,12.0,-999.0,69,0.00,,,0.00,605,WeatherHawk,2013-10-04 13:40:00,
2013-10-04 08:45:00,85.0,73.7,30.45,ENE,70,10.0,-999.0,69,0.00,,,0.00,566,WeatherHawk,2013-10-04 13:45:00,
2013-10-04 08:50:00,85.1,73.8,30.45,ENE,58,11.0,-999.0,69,0.00,,,0.00,671,WeatherHawk,2013-10-04 13:50:00,
2013-10-04 08:55:00,84.4,74.0,30.46,ENE,61,11.0,-999.0,71,0.00,,,0.00,182,WeatherHawk,2013-10-04 13:55:00,
2013-10-04 09:00:00,85.2,75.1,30.46,NE,55,7.0,-999.0,72,0.00,,,0.00,629,WeatherHawk,2013-10-04 14:00:00,
2013-10-04 09:05:00,84.9,75.7,30.52,NE,51,10.0,-999.0,74,0.00,,,0.00,633,WeatherHawk,2013-10-04 14:05:00,
2013-10-04 09:10:00,86.7,74.4,30.53,NE,43,10.0,-999.0,67,0.00,,,0.00,647,WeatherHawk,2013-10-04 14:10:00,
2013-10-04 09:15:00,86.4,74.1,30.45,NE,41,6.0,-999.0,67,0.00,,,0.00,635,WeatherHawk,2013-10-04 14:15:00,
2013-10-04 09:20:00,85.5,74.1,30.51,East,80,7.0,-999.0,69,0.00,,,0.00,545,WeatherHawk,2013-10-04 14:20:00,
2013-10-04 09:25:00,84.6,73.7,30.45,NE,34,12.0,-999.0,70,0.00,,,0.00,246,WeatherHawk,2013-10-04 14:25:00,
2013-10-04 09:30:00,85.1,74.6,30.45,NE,41,13.0,-999.0,71,0.00,,,0.00,757,WeatherHawk,2013-10-04 14:30:00,
2013-10-04 09:35:00,86.4,75.4,30.46,NE,47,10.0,-999.0,70,0.00,,,0.00,728,WeatherHawk,2013-10-04 14:35:00,
2013-10-04 09:40:00,85.6,73.8,30.46,NE,50,12.0,-999.0,68,0.00,,,0.00,786,WeatherHawk,2013-10-04 14:40:00,
2013-10-04 09:45:00,87.5,72.8,30.46,NE,47,6.0,-999.0,62,0.00,,,0.00,801,WeatherHawk,2013-10-04 14:45:00,
2013-10-04 09:50:00,86.7,70.6,30.45,NNE,16,6.0,-999.0,59,0.00,,,0.00,302,WeatherHawk,2013-10-04 14:50:00,
2013-10-04 09:55:00,85.8,70.7,30.47,NE,38,8.0,-999.0,61,0.00,,,0.00,308,WeatherHawk,2013-10-04 14:55:00,
2013-10-04 10:00:00,86.8,73.2,30.48,North,5,3.0,-999.0,64,0.00,,,0.00,261,WeatherHawk,2013-10-04 15:00:00,
2013-10-04 10:05:00,86.3,71.7,30.46,NE,41,4.0,-999.0,62,0.00,,,0.00,337,WeatherHawk,2013-10-04 15:05:00,
2013-10-04 10:10:00,85.9,69.4,30.46,ENE,66,0.0,-999.0,58,0.00,,,0.00,246,WeatherHawk,2013-10-04 15:10:00,
2013-10-04 10:15:00,87.4,68.7,30.47,ESE,115,4.0,-999.0,54,0.00,,,0.00,815,WeatherHawk,2013-10-04 15:15:00,
2013-10-04 10:20:00,88.1,68.2,30.45,South,177,3.0,-999.0,52,0.00,,,0.00,797,WeatherHawk,2013-10-04 15:20:00,
2013-10-04 10:25:00,89.1,68.6,30.46,SSE,158,4.0,-999.0,51,0.00,,,0.00,802,WeatherHawk,2013-10-04 15:25:00,
2013-10-04 10:30:00,87.3,65.7,30.46,East,98,3.0,-999.0,49,0.00,,,0.00,813,WeatherHawk,2013-10-04 15:30:00,
2013-10-04 10:35:00,89.2,68.1,30.47,NE,55,4.0,-999.0,50,0.00,,,0.00,825,WeatherHawk,2013-10-04 15:35:00,
2013-10-04 10:40:00,87.9,65.1,30.45,ENE,59,2.0,-999.0,47,0.00,,,0.00,827,WeatherHawk,2013-10-04 15:40:00,
2013-10-04 10:45:00,88.8,66.5,30.46,SSE,158,2.0,-999.0,48,0.00,,,0.00,839,WeatherHawk,2013-10-04 15:45:00,
2013-10-04 10:50:00,89.2,66.3,30.47,ESE,105,3.0,-999.0,47,0.00,,,0.00,877,WeatherHawk,2013-10-04 15:50:00,
2013-10-04 10:55:00,87.3,64.6,30.47,NE,52,4.0,-999.0,47,0.00,,,0.00,871,WeatherHawk,2013-10-04 15:55:00,
2013-10-04 11:00:00,87.4,64.6,30.46,ESE,110,4.0,-999.0,47,0.00,,,0.00,910,WeatherHawk,2013-10-04 16:00:00,
2013-10-04 11:05:00,89.2,66.9,30.47,South,180,6.0,-999.0,48,0.00,,,0.00,923,WeatherHawk,2013-10-04 16:05:00,
2013-10-04 11:10:00,89.1,66.8,30.46,North,351,3.0,-999.0,48,0.00,,,0.00,895,WeatherHawk,2013-10-04 16:10:00,
2013-10-04 11:15:00,91.0,68.0,30.45,SSW,211,2.0,-999.0,47,0.00,,,0.00,897,WeatherHawk,2013-10-04 16:15:00,
2013-10-04 11:20:00,90.3,66.7,30.46,NNW,343,1.0,-999.0,46,0.00,,,0.00,898,WeatherHawk,2013-10-04 16:20:00,
2013-10-04 11:25:00,89.3,63.8,30.47,ESE,122,4.0,-999.0,43,0.00,,,0.00,908,WeatherHawk,2013-10-04 16:25:00,
2013-10-04 11:30:00,89.0,63.6,30.46,ENE,77,3.0,-999.0,43,0.00,,,0.00,908,WeatherHawk,2013-10-04 16:30:00,
2013-10-04 11:35:00,88.9,64.8,30.45,ENE,71,3.0,-999.0,45,0.00,,,0.00,908,WeatherHawk,2013-10-04 16:35:00,
2013-10-04 11:40:00,88.2,64.1,30.45,East,84,4.0,-999.0,45,0.00,,,0.00,906,WeatherHawk,2013-10-04 16:40:00,
2013-10-04 11:45:00,87.9,64.5,30.45,SE,129,6.0,-999.0,46,0.00,,,0.00,916,WeatherHawk,2013-10-04 16:45:00,
2013-10-04 11:50:00,87.5,60.8,30.45,ENE,57,6.0,-999.0,41,0.00,,,0.00,920,WeatherHawk,2013-10-04 16:50:00,
2013-10-04 11:55:00,90.8,65.8,30.44,SSE,150,0.0,-999.0,44,0.00,,,0.00,920,WeatherHawk,2013-10-04 16:55:00,
2013-10-04 12:00:00,87.7,62.4,30.45,SE,143,9.0,-999.0,43,0.00,,,0.00,927,WeatherHawk,2013-10-04 17:00:00,
2013-10-04 12:05:00,88.6,61.1,30.45,ESE,111,6.0,-999.0,40,0.00,,,0.00,936,WeatherHawk,2013-10-04 17:05:00,
2013-10-04 12:10:00,88.2,62.9,30.43,SE,139,6.0,-999.0,43,0.00,,,0.00,932,WeatherHawk,2013-10-04 17:10:00,
2013-10-04 12:15:00,88.1,62.7,30.45,NE,40,9.0,-999.0,43,0.00,,,0.00,927,WeatherHawk,2013-10-04 17:15:00,
2013-10-04 12:20:00,88.3,64.3,30.45,NNE,15,5.0,-999.0,45,0.00,,,0.00,895,WeatherHawk,2013-10-04 17:20:00,
2013-10-04 12:25:00,86.8,62.9,30.45,ESE,105,9.0,-999.0,45,0.00,,,0.00,913,WeatherHawk,2013-10-04 17:25:00,
2013-10-04 12:30:00,89.5,65.3,30.44,NE,49,4.0,-999.0,45,0.00,,,0.00,901,WeatherHawk,2013-10-04 17:30:00,
2013-10-04 12:35:00,90.8,63.8,30.45,East,97,1.0,-999.0,41,0.00,,,0.00,902,WeatherHawk,2013-10-04 17:35:00,
2013-10-04 13:00:00,88.8,65.4,30.42,ESE,113,4.0,-999.0,46,0.00,,,0.00,867,WeatherHawk,2013-10-04 18:00:00,
2013-10-04 13:05:00,86.8,62.2,30.43,East,94,7.0,-999.0,44,0.00,,,0.00,867,WeatherHawk,2013-10-04 18:05:00,
2013-10-04 13:10:00,87.9,64.5,30.42,ENE,76,6.0,-999.0,46,0.00,,,0.00,793,WeatherHawk,2013-10-04 18:10:00,
2013-10-04 13:15:00,87.9,62.6,30.44,SE,131,4.0,-999.0,43,0.00,,,0.00,886,WeatherHawk,2013-10-04 18:15:00,
2013-10-04 13:20:00,89.6,66.0,30.42,South,191,3.0,-999.0,46,0.00,,,0.00,865,WeatherHawk,2013-10-04 18:20:00,
2013-10-04 13:25:00,89.1,67.4,30.42,SE,134,5.0,-999.0,49,0.00,,,0.00,879,WeatherHawk,2013-10-04 18:25:00,
2013-10-04 13:35:00,88.6,68.6,30.43,South,183,4.0,-999.0,52,0.00,,,0.00,273,WeatherHawk,2013-10-04 18:35:00,
2013-10-04 13:40:00,87.3,67.5,30.42,East,90,6.0,-999.0,52,0.00,,,0.00,838,WeatherHawk,2013-10-04 18:40:00,
2013-10-04 13:45:00,87.3,69.1,30.42,South,189,7.0,-999.0,55,0.00,,,0.00,893,WeatherHawk,2013-10-04 18:45:00,
2013-10-04 13:50:00,86.1,69.6,30.42,NE,55,4.0,-999.0,58,0.00,,,0.00,894,WeatherHawk,2013-10-04 18:50:00,
2013-10-04 13:55:00,89.1,70.8,30.42,East,98,5.0,-999.0,55,0.00,,,0.00,915,WeatherHawk,2013-10-04 18:55:00,
2013-10-04 14:00:00,88.4,67.4,30.42,SSE,154,3.0,-999.0,50,0.00,,,0.00,317,WeatherHawk,2013-10-04 19:00:00,
2013-10-04 14:05:00,87.8,67.3,30.42,SE,141,1.0,-999.0,51,0.00,,,0.00,181,WeatherHawk,2013-10-04 19:05:00,
2013-10-04 14:10:00,87.5,66.5,30.42,East,90,5.0,-999.0,50,0.00,,,0.00,877,WeatherHawk,2013-10-04 19:10:00,
2013-10-04 14:15:00,88.0,66.4,30.42,SSE,160,4.0,-999.0,49,0.00,,,0.00,856,WeatherHawk,2013-10-04 19:15:00,
2013-10-04 14:20:00,86.5,64.4,30.41,East,92,6.0,-999.0,48,0.00,,,0.00,551,WeatherHawk,2013-10-04 19:20:00,
2013-10-04 14:25:00,86.1,66.4,30.42,ESE,112,6.0,-999.0,52,0.00,,,0.00,537,WeatherHawk,2013-10-04 19:25:00,
2013-10-04 14:30:00,87.9,70.2,30.42,NNW,330,1.0,-999.0,56,0.00,,,0.00,703,WeatherHawk,2013-10-04 19:30:00,
2013-10-04 14:35:00,85.4,66.8,30.41,ESE,114,7.0,-999.0,54,0.00,,,0.00,234,WeatherHawk,2013-10-04 19:35:00,
2013-10-04 14:40:00,86.2,68.1,30.40,East,96,10.0,-999.0,55,0.00,,,0.00,830,WeatherHawk,2013-10-04 19:40:00,
2013-10-04 14:45:00,86.4,68.3,30.42,East,88,4.0,-999.0,55,0.00,,,0.00,187,WeatherHawk,2013-10-04 19:45:00,
2013-10-04 14:50:00,88.2,69.4,30.42,SE,144,4.0,-999.0,54,0.00,,,0.00,807,WeatherHawk,2013-10-04 19:50:00,
2013-10-04 14:55:00,86.6,68.0,30.41,NE,39,4.0,-999.0,54,0.00,,,0.00,683,WeatherHawk,2013-10-04 19:55:00,
2013-10-04 15:00:00,86.9,67.6,30.41,ESE,119,5.0,-999.0,53,0.00,,,0.00,710,WeatherHawk,2013-10-04 20:00:00,
2013-10-04 15:05:00,86.5,66.7,30.42,ESE,120,8.0,-999.0,52,0.00,,,0.00,341,WeatherHawk,2013-10-04 20:05:00,
2013-10-04 15:10:00,87.9,69.2,30.42,ESE,113,5.0,-999.0,54,0.00,,,0.00,722,WeatherHawk,2013-10-04 20:10:00,
2013-10-04 15:15:00,87.2,67.9,30.41,SSE,149,6.0,-999.0,53,0.00,,,0.00,696,WeatherHawk,2013-10-04 20:15:00,
2013-10-04 15:20:00,86.2,68.6,30.40,ENE,74,3.0,-999.0,56,0.00,,,0.00,436,WeatherHawk,2013-10-04 20:20:00,
2013-10-04 15:25:00,86.6,69.5,30.42,SW,231,7.0,-999.0,57,0.00,,,0.00,703,WeatherHawk,2013-10-04 20:25:00,
2013-10-04 15:30:00,86.5,67.8,30.40,SE,133,7.0,-999.0,54,0.00,,,0.00,583,WeatherHawk,2013-10-04 20:30:00,
2013-10-04 15:35:00,85.9,69.4,30.41,SE,129,4.0,-999.0,58,0.00,,,0.00,182,WeatherHawk,2013-10-04 20:35:00,
2013-10-04 15:40:00,85.0,68.5,30.41,ESE,106,12.0,-999.0,58,0.00,,,0.00,104,WeatherHawk,2013-10-04 20:40:00,
2013-10-04 15:45:00,88.4,72.2,30.42,SE,142,0.0,-999.0,59,0.00,,,0.00,561,WeatherHawk,2013-10-04 20:45:00,
2013-10-04 15:50:00,86.9,70.3,30.41,ESE,120,3.0,-999.0,58,0.00,,,0.00,183,WeatherHawk,2013-10-04 20:50:00,
2013-10-04 15:55:00,85.8,69.3,30.41,East,98,7.0,-999.0,58,0.00,,,0.00,133,WeatherHawk,2013-10-04 20:55:00,
2013-10-04 16:00:00,86.8,70.7,30.42,SE,139,7.0,-999.0,59,0.00,,,0.00,499,WeatherHawk,2013-10-04 21:00:00,
2013-10-04 16:05:00,85.0,68.6,30.41,ENE,78,7.0,-999.0,58,0.00,,,0.00,210,WeatherHawk,2013-10-04 21:05:00,
2013-10-04 16:10:00,85.4,69.9,30.41,ENE,73,5.0,-999.0,60,0.00,,,0.00,253,WeatherHawk,2013-10-04 21:10:00,
2013-10-04 16:15:00,85.9,70.3,30.41,East,89,0.0,-999.0,60,0.00,,,0.00,184,WeatherHawk,2013-10-04 21:15:00,
2013-10-04 16:20:00,85.8,70.8,30.43,SE,145,3.0,-999.0,61,0.00,,,0.00,359,WeatherHawk,2013-10-04 21:20:00,
2013-10-04 16:25:00,86.6,71.5,30.41,SE,143,2.0,-999.0,61,0.00,,,0.00,337,WeatherHawk,2013-10-04 21:25:00,
2013-10-04 16:30:00,85.4,70.3,30.41,ESE,103,4.0,-999.0,61,0.00,,,0.00,109,WeatherHawk,2013-10-04 21:30:00,
2013-10-04 16:35:00,85.0,70.1,30.42,East,95,4.0,-999.0,61,0.00,,,0.00,87,WeatherHawk,2013-10-04 21:35:00,
2013-10-04 16:40:00,85.0,70.9,30.42,NE,50,3.0,-999.0,63,0.00,,,0.00,78,WeatherHawk,2013-10-04 21:40:00,
2013-10-04 16:50:00,84.5,71.8,30.42,ESE,112,3.0,-999.0,66,0.00,,,0.00,60,WeatherHawk,2013-10-04 21:50:00,
2013-10-04 16:55:00,84.9,72.2,30.42,SSW,193,2.0,-999.0,66,0.00,,,0.00,161,WeatherHawk,2013-10-04 21:55:00,
2013-10-04 17:00:00,84.6,71.5,30.42,ESE,103,5.0,-999.0,65,0.00,,,0.00,127,WeatherHawk,2013-10-04 22:00:00,
2013-10-04 17:05:00,84.9,72.3,30.42,ESE,112,3.0,-999.0,66,0.00,,,0.00,138,WeatherHawk,2013-10-04 22:05:00,
2013-10-04 17:10:00,85.0,72.4,30.42,South,187,1.0,-999.0,66,0.00,,,0.00,90,WeatherHawk,2013-10-04 22:10:00,
2013-10-04 17:15:00,84.5,72.4,30.43,SE,137,5.0,-999.0,67,0.00,,,0.00,94,WeatherHawk,2013-10-04 22:15:00,
2013-10-04 17:20:00,84.5,73.2,30.42,SSE,150,0.0,-999.0,69,0.00,,,0.00,62,WeatherHawk,2013-10-04 22:20:00,
2013-10-04 17:25:00,84.3,73.0,30.42,East,95,4.0,-999.0,69,0.00,,,0.00,78,WeatherHawk,2013-10-04 22:25:00,
2013-10-04 17:30:00,85.1,73.3,30.43,SW,224,0.0,-999.0,68,0.00,,,0.00,107,WeatherHawk,2013-10-04 22:30:00,
2013-10-04 17:35:00,84.3,73.4,30.43,SSE,154,1.0,-999.0,70,0.00,,,0.00,43,WeatherHawk,2013-10-04 22:35:00,
2013-10-04 17:40:00,83.9,73.9,30.43,ESE,114,0.0,-999.0,72,0.00,,,0.00,45,WeatherHawk,2013-10-04 22:40:00,
2013-10-04 17:45:00,84.0,73.5,30.42,South,170,0.0,-999.0,71,0.00,,,0.00,43,WeatherHawk,2013-10-04 22:45:00,
2013-10-04 17:50:00,83.9,73.8,30.44,ESE,107,0.0,-999.0,72,0.00,,,0.00,26,WeatherHawk,2013-10-04 22:50:00,
2013-10-04 17:55:00,83.8,73.8,30.43,East,101,2.0,-999.0,72,0.00,,,0.00,21,WeatherHawk,2013-10-04 22:55:00,
2013-10-04 18:00:00,83.4,73.9,30.42,East,98,3.0,-999.0,73,0.00,,,0.00,15,WeatherHawk,2013-10-04 23:00:00,
2013-10-04 18:05:00,83.5,73.9,30.43,East,80,1.0,-999.0,73,0.00,,,0.00,7,WeatherHawk,2013-10-04 23:05:00,
2013-10-04 18:10:00,83.1,73.9,30.44,ESE,105,0.0,-999.0,74,0.00,,,0.00,4,WeatherHawk,2013-10-04 23:10:00,
2013-10-04 18:15:00,83.2,74.5,30.43,SE,126,2.0,-999.0,75,0.00,,,0.00,0,WeatherHawk,2013-10-04 23:15:00,
2013-10-04 18:20:00,82.7,74.0,30.43,NE,48,0.0,-999.0,75,0.00,,,0.00,1,WeatherHawk,2013-10-04 23:20:00,
2013-10-04 18:25:00,82.7,74.4,30.45,SSE,147,2.0,-999.0,76,0.00,,,0.00,0,WeatherHawk,2013-10-04 23:25:00,
2013-10-04 18:30:00,82.6,74.3,30.44,SE,140,1.0,-999.0,76,0.00,,,0.00,1,WeatherHawk,2013-10-04 23:30:00,
2013-10-04 18:35:00,82.4,74.4,30.43,ESE,105,0.0,-999.0,77,0.00,,,0.00,0,WeatherHawk,2013-10-04 23:35:00,
2013-10-04 18:40:00,82.4,74.8,30.44,NW,321,0.0,-999.0,78,0.00,,,0.00,0,WeatherHawk,2013-10-04 23:40:00,
2013-10-04 18:45:00,82.4,75.2,30.45,NW,325,0.0,-999.0,79,0.00,,,0.00,0,WeatherHawk,2013-10-04 23:45:00,
2013-10-04 18:50:00,82.3,75.9,30.45,ESE,121,0.0,-999.0,81,0.00,,,0.00,0,WeatherHawk,2013-10-04 23:50:00,
2013-10-04 18:55:00,82.5,76.1,30.45,NE,39,2.0,-999.0,81,0.00,,,0.00,0,WeatherHawk,2013-10-04 23:55:00,
2013-10-04 19:00:00,82.2,76.2,30.45,North,9,0.0,-999.0,82,0.00,,,0.00,0,WeatherHawk,2013-10-05 00:00:00,
2013-10-04 19:05:00,82.5,76.8,30.45,ENE,69,0.0,-999.0,83,0.00,,,0.00,0,WeatherHawk,2013-10-05 00:05:00,
2013-10-04 19:10:00,82.5,76.8,30.45,NE,42,2.0,-999.0,83,0.00,,,0.00,0,WeatherHawk,2013-10-05 00:10:00,
2013-10-04 19:15:00,82.5,77.2,30.45,NNE,27,3.0,-999.0,84,0.00,,,0.00,0,WeatherHawk,2013-10-05 00:15:00,
2013-10-04 19:20:00,82.4,77.1,30.47,SE,127,0.0,-999.0,84,0.00,,,0.00,0,WeatherHawk,2013-10-05 00:20:00,
2013-10-04 19:25:00,82.4,77.1,30.46,ENE,64,2.0,-999.0,84,0.00,,,0.00,0,WeatherHawk,2013-10-05 00:25:00,
2013-10-04 19:30:00,82.1,76.8,30.45,SSE,164,0.0,-999.0,84,0.00,,,0.00,0,WeatherHawk,2013-10-05 00:30:00,
2013-10-04 19:35:00,82.0,77.1,30.46,WNW,289,0.0,-999.0,85,0.00,,,0.00,0,WeatherHawk,2013-10-05 00:35:00,
2013-10-04 19:40:00,81.8,77.2,30.46,East,96,0.0,-999.0,86,0.00,,,0.00,0,WeatherHawk,2013-10-05 00:40:00,
2013-10-04 19:45:00,82.1,77.8,30.47,North,0,1.0,-999.0,87,0.00,,,0.00,0,WeatherHawk,2013-10-05 00:45:00,
2013-10-04 19:50:00,81.9,77.6,30.47,East,83,0.0,-999.0,87,0.00,,,0.00,0,WeatherHawk,2013-10-05 00:50:00,
2013-10-04 19:55:00,81.8,77.9,30.46,East,98,0.0,-999.0,88,0.00,,,0.00,0,WeatherHawk,2013-10-05 00:55:00,
2013-10-04 20:00:00,81.7,77.7,30.47,East,100,0.0,-999.0,88,0.00,,,0.00,0,WeatherHawk,2013-10-05 01:00:00,
2013-10-04 20:05:00,82.0,78.0,30.47,North,10,0.0,-999.0,88,0.00,,,0.00,0,WeatherHawk,2013-10-05 01:05:00,
2013-10-04 20:10:00,81.4,77.9,30.47,East,81,0.0,-999.0,89,0.00,,,0.00,0,WeatherHawk,2013-10-05 01:10:00,
2013-10-04 20:15:00,81.6,78.0,30.49,East,93,1.0,-999.0,89,0.00,,,0.00,0,WeatherHawk,2013-10-05 01:15:00,
2013-10-04 20:20:00,81.6,78.0,30.48,NNW,348,0.0,-999.0,89,0.00,,,0.00,0,WeatherHawk,2013-10-05 01:20:00,
2013-10-04 20:25:00,81.8,78.2,30.48,North,0,0.0,-999.0,89,0.00,,,0.00,0,WeatherHawk,2013-10-05 01:25:00,
2013-10-04 20:30:00,81.9,78.0,30.48,ENE,61,0.0,-999.0,88,0.00,,,0.00,0,WeatherHawk,2013-10-05 01:30:00,
2013-10-04 20:35:00,82.0,78.1,30.49,NNE,18,0.0,-999.0,88,0.00,,,0.00,0,WeatherHawk,2013-10-05 01:35:00,
2013-10-04 20:40:00,82.0,77.8,30.49,NNE,25,0.0,-999.0,87,0.00,,,0.00,0,WeatherHawk,2013-10-05 01:40:00,
2013-10-04 20:45:00,82.1,77.5,30.48,ESE,109,0.0,-999.0,86,0.00,,,0.00,0,WeatherHawk,2013-10-05 01:45:00,
2013-10-04 20:50:00,82.3,77.4,30.49,ENE,60,1.0,-999.0,85,0.00,,,0.00,0,WeatherHawk,2013-10-05 01:50:00,
2013-10-04 20:55:00,82.5,77.8,30.50,NNE,20,0.0,-999.0,86,0.00,,,0.00,0,WeatherHawk,2013-10-05 01:55:00,
2013-10-04 21:00:00,82.4,77.7,30.49,NE,49,1.0,-999.0,86,0.00,,,0.00,0,WeatherHawk,2013-10-05 02:00:00,
2013-10-04 21:05:00,82.2,77.6,30.49,NNW,347,0.0,-999.0,86,0.00,,,0.00,0,WeatherHawk,2013-10-05 02:05:00,
2013-10-04 21:10:00,82.1,77.9,30.50,NNW,345,0.0,-999.0,87,0.00,,,0.00,0,WeatherHawk,2013-10-05 02:10:00,
2013-10-04 21:15:00,82.3,78.0,30.50,NNE,32,2.0,-999.0,87,0.00,,,0.00,0,WeatherHawk,2013-10-05 02:15:00,
2013-10-04 21:20:00,82.3,78.0,30.49,NNE,32,2.0,-999.0,87,0.00,,,0.00,0,WeatherHawk,2013-10-05 02:20:00,
2013-10-04 21:25:00,82.3,78.1,30.49,ENE,75,0.0,-999.0,87,0.00,,,0.00,0,WeatherHawk,2013-10-05 02:25:00,
2013-10-04 21:30:00,82.5,77.8,30.50,ENE,72,4.0,-999.0,86,0.00,,,0.00,0,WeatherHawk,2013-10-05 02:30:00,
2013-10-04 21:35:00,82.6,77.7,30.49,ENE,58,6.0,-999.0,85,0.00,,,0.00,0,WeatherHawk,2013-10-05 02:35:00,
2013-10-04 21:40:00,82.4,78.1,30.50,East,90,3.0,-999.0,87,0.00,,,0.00,0,WeatherHawk,2013-10-05 02:40:00,
2013-10-04 21:45:00,82.6,77.9,30.55,North,7,4.0,-999.0,86,0.00,,,0.00,0,WeatherHawk,2013-10-05 02:45:00,
2013-10-04 21:50:00,82.4,78.1,30.49,NE,41,0.0,-999.0,87,0.00,,,0.00,0,WeatherHawk,2013-10-05 02:50:00,
2013-10-04 21:55:00,82.2,78.0,30.49,ENE,61,1.0,-999.0,87,0.00,,,0.00,0,WeatherHawk,2013-10-05 02:55:00,
2013-10-04 22:00:00,82.2,78.3,30.49,East,84,1.0,-999.0,88,0.00,,,0.00,0,WeatherHawk,2013-10-05 03:00:00,
2013-10-04 22:05:00,82.3,78.3,30.49,NNE,29,0.0,-999.0,88,0.00,,,0.00,0,WeatherHawk,2013-10-05 03:05:00,
2013-10-04 22:10:00,82.1,78.2,30.50,NE,37,0.0,-999.0,88,0.00,,,0.00,0,WeatherHawk,2013-10-05 03:10:00,
2013-10-04 22:15:00,82.0,78.4,30.49,NE,40,2.0,-999.0,89,0.00,,,0.00,0,WeatherHawk,2013-10-05 03:15:00,
2013-10-04 22:20:00,81.7,78.1,30.49,ENE,67,0.0,-999.0,89,0.00,,,0.00,0,WeatherHawk,2013-10-05 03:20:00,
2013-10-04 22:25:00,81.6,78.1,30.49,SSE,149,1.0,-999.0,89,0.00,,,0.00,0,WeatherHawk,2013-10-05 03:25:00,
2013-10-04 22:30:00,81.6,78.0,30.50,North,0,0.0,-999.0,89,0.00,,,0.00,0,WeatherHawk,2013-10-05 03:30:00,
2013-10-04 22:35:00,81.3,78.1,30.50,NNE,20,1.0,-999.0,90,0.00,,,0.00,0,WeatherHawk,2013-10-05 03:35:00,
2013-10-04 22:40:00,80.9,78.0,30.50,SSE,157,0.0,-999.0,91,0.00,,,0.00,0,WeatherHawk,2013-10-05 03:40:00,
2013-10-04 22:45:00,81.0,78.5,30.49,NE,50,0.0,-999.0,92,0.00,,,0.00,0,WeatherHawk,2013-10-05 03:45:00,
2013-10-04 22:50:00,80.7,78.1,30.50,South,173,0.0,-999.0,92,0.00,,,0.00,0,WeatherHawk,2013-10-05 03:50:00,
2013-10-04 22:55:00,80.9,78.6,30.50,SE,146,0.0,-999.0,93,0.00,,,0.00,0,WeatherHawk,2013-10-05 03:55:00,
2013-10-04 23:00:00,80.4,78.2,30.50,SE,134,0.0,-999.0,93,0.00,,,0.00,0,WeatherHawk,2013-10-05 04:00:00,
2013-10-04 23:05:00,80.5,78.6,30.51,ESE,103,0.0,-999.0,94,0.00,,,0.00,0,WeatherHawk,2013-10-05 04:05:00,
2013-10-04 23:10:00,80.3,78.7,30.49,NE,56,0.0,-999.0,95,0.00,,,0.00,0,WeatherHawk,2013-10-05 04:10:00,
2013-10-04 23:15:00,80.2,78.6,30.49,East,98,0.0,-999.0,95,0.00,,,0.00,0,WeatherHawk,2013-10-05 04:15:00,
2013-10-04 23:20:00,80.9,79.3,30.49,NE,35,0.0,-999.0,95,0.00,,,0.00,0,WeatherHawk,2013-10-05 04:20:00,
2013-10-04 23:25:00,80.9,79.3,30.49,ENE,63,0.0,-999.0,95,0.00,,,0.00,0,WeatherHawk,2013-10-05 04:25:00,
2013-10-04 23:30:00,80.8,79.2,30.49,ESE,118,0.0,-999.0,95,0.00,,,0.00,0,WeatherHawk,2013-10-05 04:30:00,
2013-10-04 23:35:00,80.8,79.2,30.50,ENE,65,0.0,-999.0,95,0.00,,,0.00,0,WeatherHawk,2013-10-05 04:35:00,
2013-10-04 23:40:00,80.4,78.5,30.49,West,266,0.0,-999.0,94,0.00,,,0.00,0,WeatherHawk,2013-10-05 04:40:00,
2013-10-04 23:45:00,80.9,79.3,30.49,East,95,0.0,-999.0,95,0.00,,,0.00,0,WeatherHawk,2013-10-05 04:45:00,
2013-10-04 23:50:00,80.8,78.9,30.50,NNE,17,0.0,-999.0,94,0.00,,,0.00,0,WeatherHawk,2013-10-05 04:50:00,
2013-10-04 23:55:00,80.9,78.7,30.49,ESE,115,0.0,-999.0,93,0.00,,,0.00,0,WeatherHawk,2013-10-05 04:55:00,